sensor_id;sensor_type;location;lat;lon;timestamp;P1;durP1;ratioP1;P2;durP2;ratioP2
60352;SDS011;46196;52.970;6.954;2022-09-01T00:01:55;3.85;;;1.85;;
60352;SDS011;46196;52.970;6.954;2022-09-01T00:04:22;3.72;;;2.00;;
60352;SDS011;46196;52.970;6.954;2022-09-01T00:06:52;3.08;;;2.00;;
60352;SDS011;46196;52.970;6.954;2022-09-01T00:09:23;2.50;;;1.80;;
60352;SDS011;46196;52.970;6.954;2022-09-01T00:11:51;4.53;;;2.35;;
60352;SDS011;46196;52.970;6.954;2022-09-01T00:14:19;2.40;;;1.80;;
60352;SDS011;46196;52.970;6.954;2022-09-01T00:16:47;2.33;;;1.85;;
60352;SDS011;46196;52.970;6.954;2022-09-01T00:19:13;2.55;;;1.80;;
60352;SDS011;46196;52.970;6.954;2022-09-01T00:21:40;3.00;;;1.90;;
60352;SDS011;46196;52.970;6.954;2022-09-01T00:24:08;4.35;;;2.10;;
60352;SDS011;46196;52.970;6.954;2022-09-01T00:26:35;3.65;;;2.10;;
60352;SDS011;46196;52.970;6.954;2022-09-01T00:29:01;2.88;;;1.80;;
60352;SDS011;46196;52.970;6.954;2022-09-01T00:31:28;2.42;;;1.80;;
60352;SDS011;46196;52.970;6.954;2022-09-01T00:33:54;4.18;;;2.42;;
60352;SDS011;46196;52.970;6.954;2022-09-01T00:36:20;4.10;;;1.90;;
60352;SDS011;46196;52.970;6.954;2022-09-01T00:38:46;3.55;;;2.13;;
60352;SDS011;46196;52.970;6.954;2022-09-01T00:41:13;2.50;;;1.90;;
60352;SDS011;46196;52.970;6.954;2022-09-01T00:46:19;4.07;;;2.20;;
60352;SDS011;46196;52.970;6.954;2022-09-01T00:48:50;3.10;;;2.10;;
60352;SDS011;46196;52.970;6.954;2022-09-01T00:51:20;3.13;;;2.10;;
60352;SDS011;46196;52.970;6.954;2022-09-01T00:53:46;2.85;;;2.10;;
60352;SDS011;46196;52.970;6.954;2022-09-01T00:56:12;2.90;;;2.10;;
60352;SDS011;46196;52.970;6.954;2022-09-01T00:58:38;5.03;;;2.10;;
60352;SDS011;46196;52.970;6.954;2022-09-01T01:01:05;3.58;;;2.30;;
60352;SDS011;46196;52.970;6.954;2022-09-01T01:03:32;2.92;;;2.20;;
60352;SDS011;46196;52.970;6.954;2022-09-01T01:05:59;4.05;;;2.40;;
60352;SDS011;46196;52.970;6.954;2022-09-01T01:08:30;2.55;;;2.10;;
60352;SDS011;46196;52.970;6.954;2022-09-01T01:11:02;3.38;;;2.15;;
60352;SDS011;46196;52.970;6.954;2022-09-01T01:13:31;2.28;;;1.85;;
60352;SDS011;46196;52.970;6.954;2022-09-01T01:16:00;5.25;;;2.20;;
60352;SDS011;46196;52.970;6.954;2022-09-01T01:18:27;3.05;;;2.05;;
60352;SDS011;46196;52.970;6.954;2022-09-01T01:20:56;4.70;;;2.28;;
60352;SDS011;46196;52.970;6.954;2022-09-01T01:26:35;3.28;;;2.00;;
60352;SDS011;46196;52.970;6.954;2022-09-01T01:29:01;2.95;;;1.90;;
60352;SDS011;46196;52.970;6.954;2022-09-01T01:31:27;3.05;;;2.20;;
60352;SDS011;46196;52.970;6.954;2022-09-01T01:33:54;3.58;;;2.10;;
60352;SDS011;46196;52.970;6.954;2022-09-01T01:36:23;2.40;;;2.00;;
60352;SDS011;46196;52.970;6.954;2022-09-01T01:38:57;2.38;;;1.90;;
60352;SDS011;46196;52.970;6.954;2022-09-01T01:41:27;2.90;;;2.10;;
60352;SDS011;46196;52.970;6.954;2022-09-01T01:43:57;3.97;;;2.17;;
60352;SDS011;46196;52.970;6.954;2022-09-01T01:46:24;3.00;;;2.30;;
60352;SDS011;46196;52.970;6.954;2022-09-01T01:48:50;2.67;;;2.00;;
60352;SDS011;46196;52.970;6.954;2022-09-01T01:51:18;3.42;;;2.40;;
60352;SDS011;46196;52.970;6.954;2022-09-01T01:53:51;3.13;;;2.10;;
60352;SDS011;46196;52.970;6.954;2022-09-01T01:56:18;2.85;;;2.10;;
60352;SDS011;46196;52.970;6.954;2022-09-01T01:58:46;3.00;;;2.10;;
60352;SDS011;46196;52.970;6.954;2022-09-01T02:01:12;4.32;;;2.85;;
60352;SDS011;46196;52.970;6.954;2022-09-01T02:03:41;3.17;;;2.10;;
60352;SDS011;46196;52.970;6.954;2022-09-01T02:06:07;3.42;;;2.20;;
60352;SDS011;46196;52.970;6.954;2022-09-01T02:08:37;3.88;;;2.10;;
60352;SDS011;46196;52.970;6.954;2022-09-01T02:11:05;3.80;;;2.20;;
60352;SDS011;46196;52.970;6.954;2022-09-01T02:13:32;2.70;;;1.98;;
60352;SDS011;46196;52.970;6.954;2022-09-01T02:16:04;3.47;;;2.25;;
60352;SDS011;46196;52.970;6.954;2022-09-01T02:18:37;2.80;;;2.00;;
60352;SDS011;46196;52.970;6.954;2022-09-01T02:21:13;3.15;;;2.10;;
60352;SDS011;46196;52.970;6.954;2022-09-01T02:23:43;2.78;;;2.10;;
60352;SDS011;46196;52.970;6.954;2022-09-01T02:26:11;3.58;;;2.00;;
60352;SDS011;46196;52.970;6.954;2022-09-01T02:28:37;3.40;;;1.92;;
60352;SDS011;46196;52.970;6.954;2022-09-01T02:31:07;3.20;;;2.25;;
60352;SDS011;46196;52.970;6.954;2022-09-01T02:33:35;3.63;;;2.37;;
60352;SDS011;46196;52.970;6.954;2022-09-01T02:36:10;2.78;;;1.98;;
60352;SDS011;46196;52.970;6.954;2022-09-01T02:38:38;2.97;;;2.20;;
60352;SDS011;46196;52.970;6.954;2022-09-01T02:41:07;3.23;;;2.00;;
60352;SDS011;46196;52.970;6.954;2022-09-01T02:43:32;4.00;;;2.38;;
60352;SDS011;46196;52.970;6.954;2022-09-01T02:45:59;2.90;;;2.10;;
60352;SDS011;46196;52.970;6.954;2022-09-01T02:48:28;3.45;;;2.20;;
60352;SDS011;46196;52.970;6.954;2022-09-01T02:50:58;2.75;;;2.10;;
60352;SDS011;46196;52.970;6.954;2022-09-01T02:53:26;2.75;;;2.20;;
60352;SDS011;46196;52.970;6.954;2022-09-01T02:55:52;2.60;;;2.00;;
60352;SDS011;46196;52.970;6.954;2022-09-01T02:58:27;2.72;;;2.08;;
60352;SDS011;46196;52.970;6.954;2022-09-01T03:00:57;3.80;;;2.25;;
60352;SDS011;46196;52.970;6.954;2022-09-01T03:03:23;2.50;;;2.08;;
60352;SDS011;46196;52.970;6.954;2022-09-01T03:05:50;3.08;;;2.10;;
60352;SDS011;46196;52.970;6.954;2022-09-01T03:08:19;3.55;;;2.50;;
60352;SDS011;46196;52.970;6.954;2022-09-01T03:10:47;2.80;;;2.20;;
60352;SDS011;46196;52.970;6.954;2022-09-01T03:13:15;3.95;;;2.30;;
60352;SDS011;46196;52.970;6.954;2022-09-01T03:15:43;2.75;;;2.10;;
60352;SDS011;46196;52.970;6.954;2022-09-01T03:18:10;3.03;;;2.20;;
60352;SDS011;46196;52.970;6.954;2022-09-01T03:20:39;2.88;;;2.15;;
60352;SDS011;46196;52.970;6.954;2022-09-01T03:23:11;2.60;;;1.95;;
60352;SDS011;46196;52.970;6.954;2022-09-01T03:25:39;4.60;;;2.78;;
60352;SDS011;46196;52.970;6.954;2022-09-01T03:28:06;4.13;;;2.20;;
60352;SDS011;46196;52.970;6.954;2022-09-01T03:30:34;2.83;;;2.10;;
60352;SDS011;46196;52.970;6.954;2022-09-01T03:33:04;2.80;;;2.00;;
60352;SDS011;46196;52.970;6.954;2022-09-01T03:35:31;3.20;;;2.20;;
60352;SDS011;46196;52.970;6.954;2022-09-01T03:37:58;3.75;;;2.40;;
60352;SDS011;46196;52.970;6.954;2022-09-01T03:40:27;2.65;;;2.10;;
60352;SDS011;46196;52.970;6.954;2022-09-01T03:42:57;3.53;;;2.10;;
60352;SDS011;46196;52.970;6.954;2022-09-01T03:45:23;2.55;;;2.08;;
60352;SDS011;46196;52.970;6.954;2022-09-01T03:47:50;2.95;;;2.00;;
60352;SDS011;46196;52.970;6.954;2022-09-01T03:50:18;3.17;;;2.00;;
60352;SDS011;46196;52.970;6.954;2022-09-01T03:55:16;4.95;;;2.20;;
60352;SDS011;46196;52.970;6.954;2022-09-01T03:57:56;3.22;;;2.22;;
60352;SDS011;46196;52.970;6.954;2022-09-01T04:00:31;2.92;;;2.22;;
60352;SDS011;46196;52.970;6.954;2022-09-01T04:03:01;2.72;;;2.13;;
60352;SDS011;46196;52.970;6.954;2022-09-01T04:05:29;2.33;;;1.83;;
60352;SDS011;46196;52.970;6.954;2022-09-01T04:07:59;3.13;;;2.30;;
60352;SDS011;46196;52.970;6.954;2022-09-01T04:10:34;2.75;;;2.05;;
60352;SDS011;46196;52.970;6.954;2022-09-01T04:13:06;3.50;;;1.98;;
60352;SDS011;46196;52.970;6.954;2022-09-01T04:18:01;3.78;;;2.20;;
60352;SDS011;46196;52.970;6.954;2022-09-01T04:20:44;3.00;;;2.10;;
60352;SDS011;46196;52.970;6.954;2022-09-01T04:23:16;2.92;;;2.00;;
60352;SDS011;46196;52.970;6.954;2022-09-01T04:25:55;3.28;;;2.20;;
60352;SDS011;46196;52.970;6.954;2022-09-01T04:28:29;3.10;;;2.30;;
60352;SDS011;46196;52.970;6.954;2022-09-01T04:30:58;4.13;;;2.40;;
60352;SDS011;46196;52.970;6.954;2022-09-01T04:33:30;3.20;;;2.40;;
60352;SDS011;46196;52.970;6.954;2022-09-01T04:36:01;3.80;;;2.30;;
60352;SDS011;46196;52.970;6.954;2022-09-01T04:38:29;4.57;;;2.42;;
60352;SDS011;46196;52.970;6.954;2022-09-01T04:40:55;5.75;;;2.47;;
60352;SDS011;46196;52.970;6.954;2022-09-01T04:43:22;10.00;;;2.75;;
60352;SDS011;46196;52.970;6.954;2022-09-01T04:45:49;3.50;;;2.30;;
60352;SDS011;46196;52.970;6.954;2022-09-01T04:48:24;3.15;;;2.20;;
60352;SDS011;46196;52.970;6.954;2022-09-01T04:50:51;3.55;;;2.30;;
60352;SDS011;46196;52.970;6.954;2022-09-01T04:53:17;6.05;;;2.60;;
60352;SDS011;46196;52.970;6.954;2022-09-01T04:55:44;3.40;;;2.28;;
60352;SDS011;46196;52.970;6.954;2022-09-01T04:58:13;4.25;;;2.58;;
60352;SDS011;46196;52.970;6.954;2022-09-01T05:00:42;3.88;;;2.60;;
60352;SDS011;46196;52.970;6.954;2022-09-01T05:03:12;3.65;;;2.50;;
60352;SDS011;46196;52.970;6.954;2022-09-01T05:05:39;4.88;;;2.50;;
60352;SDS011;46196;52.970;6.954;2022-09-01T05:08:11;3.30;;;2.47;;
60352;SDS011;46196;52.970;6.954;2022-09-01T05:10:43;5.07;;;2.60;;
60352;SDS011;46196;52.970;6.954;2022-09-01T05:13:12;2.95;;;2.30;;
60352;SDS011;46196;52.970;6.954;2022-09-01T05:15:41;6.78;;;2.63;;
60352;SDS011;46196;52.970;6.954;2022-09-01T05:18:16;5.68;;;2.72;;
60352;SDS011;46196;52.970;6.954;2022-09-01T05:20:48;4.22;;;2.28;;
60352;SDS011;46196;52.970;6.954;2022-09-01T05:23:15;3.33;;;2.40;;
60352;SDS011;46196;52.970;6.954;2022-09-01T05:25:45;3.38;;;2.50;;
60352;SDS011;46196;52.970;6.954;2022-09-01T05:28:13;3.78;;;2.50;;
60352;SDS011;46196;52.970;6.954;2022-09-01T05:30:43;6.10;;;2.50;;
60352;SDS011;46196;52.970;6.954;2022-09-01T05:33:11;3.10;;;2.30;;
60352;SDS011;46196;52.970;6.954;2022-09-01T05:35:41;5.90;;;2.45;;
60352;SDS011;46196;52.970;6.954;2022-09-01T05:38:16;5.35;;;2.60;;
60352;SDS011;46196;52.970;6.954;2022-09-01T05:40:42;5.63;;;3.30;;
60352;SDS011;46196;52.970;6.954;2022-09-01T05:43:09;3.92;;;2.60;;
60352;SDS011;46196;52.970;6.954;2022-09-01T05:45:41;4.90;;;2.80;;
60352;SDS011;46196;52.970;6.954;2022-09-01T05:48:10;4.90;;;2.90;;
60352;SDS011;46196;52.970;6.954;2022-09-01T05:50:41;3.78;;;2.67;;
60352;SDS011;46196;52.970;6.954;2022-09-01T05:53:10;4.55;;;2.70;;
60352;SDS011;46196;52.970;6.954;2022-09-01T05:55:44;6.50;;;2.95;;
60352;SDS011;46196;52.970;6.954;2022-09-01T05:58:12;3.67;;;2.55;;
60352;SDS011;46196;52.970;6.954;2022-09-01T06:00:43;4.97;;;2.80;;
60352;SDS011;46196;52.970;6.954;2022-09-01T06:03:13;6.72;;;2.55;;
60352;SDS011;46196;52.970;6.954;2022-09-01T06:05:41;5.95;;;2.50;;
60352;SDS011;46196;52.970;6.954;2022-09-01T06:08:09;5.07;;;2.72;;
60352;SDS011;46196;52.970;6.954;2022-09-01T06:10:38;3.10;;;2.30;;
60352;SDS011;46196;52.970;6.954;2022-09-01T06:13:06;3.22;;;2.50;;
60352;SDS011;46196;52.970;6.954;2022-09-01T06:15:32;4.32;;;2.38;;
60352;SDS011;46196;52.970;6.954;2022-09-01T06:18:00;4.70;;;2.60;;
60352;SDS011;46196;52.970;6.954;2022-09-01T06:20:25;5.70;;;2.65;;
60352;SDS011;46196;52.970;6.954;2022-09-01T06:22:51;3.53;;;2.22;;
60352;SDS011;46196;52.970;6.954;2022-09-01T06:25:18;3.95;;;2.60;;
60352;SDS011;46196;52.970;6.954;2022-09-01T06:27:45;4.25;;;2.33;;
60352;SDS011;46196;52.970;6.954;2022-09-01T06:30:12;3.78;;;2.50;;
60352;SDS011;46196;52.970;6.954;2022-09-01T06:32:43;4.60;;;2.60;;
60352;SDS011;46196;52.970;6.954;2022-09-01T06:35:12;3.65;;;2.58;;
60352;SDS011;46196;52.970;6.954;2022-09-01T06:37:40;4.43;;;2.67;;
60352;SDS011;46196;52.970;6.954;2022-09-01T06:40:11;4.47;;;2.40;;
60352;SDS011;46196;52.970;6.954;2022-09-01T06:42:45;4.00;;;3.10;;
60352;SDS011;46196;52.970;6.954;2022-09-01T06:45:16;4.30;;;2.63;;
60352;SDS011;46196;52.970;6.954;2022-09-01T06:47:45;4.88;;;3.08;;
60352;SDS011;46196;52.970;6.954;2022-09-01T06:50:12;3.85;;;2.47;;
60352;SDS011;46196;52.970;6.954;2022-09-01T06:52:42;3.53;;;2.65;;
60352;SDS011;46196;52.970;6.954;2022-09-01T06:55:09;4.45;;;2.70;;
60352;SDS011;46196;52.970;6.954;2022-09-01T06:57:39;6.65;;;2.90;;
60352;SDS011;46196;52.970;6.954;2022-09-01T07:00:07;5.47;;;2.90;;
60352;SDS011;46196;52.970;6.954;2022-09-01T07:02:51;6.40;;;2.70;;
60352;SDS011;46196;52.970;6.954;2022-09-01T07:05:19;3.75;;;2.67;;
60352;SDS011;46196;52.970;6.954;2022-09-01T07:07:46;3.70;;;2.47;;
60352;SDS011;46196;52.970;6.954;2022-09-01T07:10:19;3.63;;;2.70;;
60352;SDS011;46196;52.970;6.954;2022-09-01T07:12:53;7.63;;;3.03;;
60352;SDS011;46196;52.970;6.954;2022-09-01T07:15:23;3.17;;;2.45;;
60352;SDS011;46196;52.970;6.954;2022-09-01T07:17:53;5.00;;;2.65;;
60352;SDS011;46196;52.970;6.954;2022-09-01T07:20:21;5.15;;;2.80;;
60352;SDS011;46196;52.970;6.954;2022-09-01T07:22:49;4.35;;;2.58;;
60352;SDS011;46196;52.970;6.954;2022-09-01T07:25:16;4.78;;;2.90;;
60352;SDS011;46196;52.970;6.954;2022-09-01T07:27:44;4.57;;;3.00;;
60352;SDS011;46196;52.970;6.954;2022-09-01T07:30:17;3.67;;;2.42;;
60352;SDS011;46196;52.970;6.954;2022-09-01T07:32:44;3.40;;;2.50;;
60352;SDS011;46196;52.970;6.954;2022-09-01T07:35:11;4.35;;;2.40;;
60352;SDS011;46196;52.970;6.954;2022-09-01T07:37:39;4.40;;;2.50;;
60352;SDS011;46196;52.970;6.954;2022-09-01T07:40:06;4.55;;;2.38;;
60352;SDS011;46196;52.970;6.954;2022-09-01T07:42:36;3.65;;;2.28;;
60352;SDS011;46196;52.970;6.954;2022-09-01T07:45:05;3.50;;;2.35;;
60352;SDS011;46196;52.970;6.954;2022-09-01T07:47:34;4.53;;;2.60;;
60352;SDS011;46196;52.970;6.954;2022-09-01T07:50:04;4.13;;;2.33;;
60352;SDS011;46196;52.970;6.954;2022-09-01T07:52:35;2.88;;;2.15;;
60352;SDS011;46196;52.970;6.954;2022-09-01T07:55:10;2.60;;;1.90;;
60352;SDS011;46196;52.970;6.954;2022-09-01T07:57:38;2.65;;;1.98;;
60352;SDS011;46196;52.970;6.954;2022-09-01T08:02:33;3.88;;;2.00;;
60352;SDS011;46196;52.970;6.954;2022-09-01T08:04:59;5.95;;;2.20;;
60352;SDS011;46196;52.970;6.954;2022-09-01T08:07:24;3.88;;;2.10;;
60352;SDS011;46196;52.970;6.954;2022-09-01T08:09:50;2.80;;;1.92;;
60352;SDS011;46196;52.970;6.954;2022-09-01T08:12:16;2.97;;;2.10;;
60352;SDS011;46196;52.970;6.954;2022-09-01T08:14:42;2.95;;;1.90;;
60352;SDS011;46196;52.970;6.954;2022-09-01T08:17:08;4.38;;;1.80;;
60352;SDS011;46196;52.970;6.954;2022-09-01T08:19:33;3.30;;;1.70;;
60352;SDS011;46196;52.970;6.954;2022-09-01T08:22:00;4.15;;;2.60;;
60352;SDS011;46196;52.970;6.954;2022-09-01T08:24:26;2.90;;;1.90;;
60352;SDS011;46196;52.970;6.954;2022-09-01T08:26:52;3.15;;;1.83;;
60352;SDS011;46196;52.970;6.954;2022-09-01T08:29:18;4.07;;;2.00;;
60352;SDS011;46196;52.970;6.954;2022-09-01T08:31:46;3.45;;;1.88;;
60352;SDS011;46196;52.970;6.954;2022-09-01T08:34:11;4.93;;;1.90;;
60352;SDS011;46196;52.970;6.954;2022-09-01T08:36:37;4.65;;;1.83;;
60352;SDS011;46196;52.970;6.954;2022-09-01T08:39:03;2.75;;;1.80;;
60352;SDS011;46196;52.970;6.954;2022-09-01T08:42:35;3.33;;;1.60;;
60352;SDS011;46196;52.970;6.954;2022-09-01T08:44:42;3.25;;;1.92;;
60352;SDS011;46196;52.970;6.954;2022-09-01T08:47:16;3.78;;;1.92;;
60352;SDS011;46196;52.970;6.954;2022-09-01T08:49:43;4.82;;;2.50;;
60352;SDS011;46196;52.970;6.954;2022-09-01T08:57:43;1.53;;;1.27;;
60352;SDS011;46196;52.970;6.954;2022-09-01T09:00:11;2.33;;;1.27;;
60352;SDS011;46196;52.970;6.954;2022-09-01T09:13:56;4.00;;;1.73;;
60352;SDS011;46196;52.970;6.954;2022-09-01T09:16:39;3.53;;;1.58;;
60352;SDS011;46196;52.970;6.954;2022-09-01T09:19:23;1.88;;;1.50;;
60352;SDS011;46196;52.970;6.954;2022-09-01T09:21:51;4.07;;;1.67;;
60352;SDS011;46196;52.970;6.954;2022-09-01T09:24:31;2.63;;;1.58;;
60352;SDS011;46196;52.970;6.954;2022-09-01T09:29:46;1.98;;;1.50;;
60352;SDS011;46196;52.970;6.954;2022-09-01T09:32:16;2.50;;;1.48;;
60352;SDS011;46196;52.970;6.954;2022-09-01T09:34:42;2.00;;;1.52;;
60352;SDS011;46196;52.970;6.954;2022-09-01T09:37:41;2.92;;;1.42;;
60352;SDS011;46196;52.970;6.954;2022-09-01T09:42:41;1.77;;;1.08;;
60352;SDS011;46196;52.970;6.954;2022-09-01T09:45:35;3.45;;;1.45;;
60352;SDS011;46196;52.970;6.954;2022-09-01T09:48:04;2.00;;;1.35;;
60352;SDS011;46196;52.970;6.954;2022-09-01T09:50:37;1.75;;;1.20;;
60352;SDS011;46196;52.970;6.954;2022-09-01T09:55:54;1.77;;;1.17;;
60352;SDS011;46196;52.970;6.954;2022-09-01T09:58:33;1.85;;;1.40;;
60352;SDS011;46196;52.970;6.954;2022-09-01T10:01:05;1.42;;;1.00;;
60352;SDS011;46196;52.970;6.954;2022-09-01T10:03:43;2.15;;;1.25;;
60352;SDS011;46196;52.970;6.954;2022-09-01T10:06:35;1.55;;;0.98;;
60352;SDS011;46196;52.970;6.954;2022-09-01T10:11:43;2.75;;;1.40;;
60352;SDS011;46196;52.970;6.954;2022-09-01T10:14:22;1.88;;;1.48;;
60352;SDS011;46196;52.970;6.954;2022-09-01T10:16:55;1.42;;;1.17;;
60352;SDS011;46196;52.970;6.954;2022-09-01T10:19:25;2.05;;;1.35;;
60352;SDS011;46196;52.970;6.954;2022-09-01T10:21:52;2.58;;;1.17;;
60352;SDS011;46196;52.970;6.954;2022-09-01T10:24:31;1.65;;;1.08;;
60352;SDS011;46196;52.970;6.954;2022-09-01T10:27:23;2.80;;;1.23;;
60352;SDS011;46196;52.970;6.954;2022-09-01T10:29:51;1.58;;;1.10;;
60352;SDS011;46196;52.970;6.954;2022-09-01T10:32:24;2.38;;;1.40;;
60352;SDS011;46196;52.970;6.954;2022-09-01T10:34:53;1.35;;;0.90;;
60352;SDS011;46196;52.970;6.954;2022-09-01T10:37:20;1.88;;;1.27;;
60352;SDS011;46196;52.970;6.954;2022-09-01T10:42:36;1.85;;;1.48;;
60352;SDS011;46196;52.970;6.954;2022-09-01T10:45:04;2.20;;;1.20;;
60352;SDS011;46196;52.970;6.954;2022-09-01T10:47:40;1.83;;;1.25;;
60352;SDS011;46196;52.970;6.954;2022-09-01T10:50:23;1.73;;;1.40;;
60352;SDS011;46196;52.970;6.954;2022-09-01T10:55:21;1.77;;;1.17;;
60352;SDS011;46196;52.970;6.954;2022-09-01T10:57:49;2.58;;;1.40;;
60352;SDS011;46196;52.970;6.954;2022-09-01T11:08:22;2.55;;;1.38;;
60352;SDS011;46196;52.970;6.954;2022-09-01T11:11:11;2.35;;;1.42;;
60352;SDS011;46196;52.970;6.954;2022-09-01T11:16:32;2.88;;;1.50;;
60352;SDS011;46196;52.970;6.954;2022-09-01T11:19:15;2.03;;;1.50;;
60352;SDS011;46196;52.970;6.954;2022-09-01T11:32:16;3.80;;;1.42;;
60352;SDS011;46196;52.970;6.954;2022-09-01T11:34:43;7.75;;;1.70;;
60352;SDS011;46196;52.970;6.954;2022-09-01T11:37:14;2.92;;;1.60;;
60352;SDS011;46196;52.970;6.954;2022-09-01T11:39:47;2.00;;;1.38;;
60352;SDS011;46196;52.970;6.954;2022-09-01T11:42:26;3.70;;;1.52;;
60352;SDS011;46196;52.970;6.954;2022-09-01T11:45:04;1.52;;;1.27;;
60352;SDS011;46196;52.970;6.954;2022-09-01T11:47:55;2.22;;;1.10;;
60352;SDS011;46196;52.970;6.954;2022-09-01T11:50:29;1.95;;;1.40;;
60352;SDS011;46196;52.970;6.954;2022-09-01T11:52:58;1.65;;;1.17;;
60352;SDS011;46196;52.970;6.954;2022-09-01T11:58:05;2.00;;;1.30;;
60352;SDS011;46196;52.970;6.954;2022-09-01T12:00:35;2.58;;;1.55;;
60352;SDS011;46196;52.970;6.954;2022-09-01T12:03:03;1.42;;;1.13;;
60352;SDS011;46196;52.970;6.954;2022-09-01T12:05:44;3.80;;;1.30;;
60352;SDS011;46196;52.970;6.954;2022-09-01T12:10:41;2.42;;;1.38;;
60352;SDS011;46196;52.970;6.954;2022-09-01T12:13:10;2.08;;;1.35;;
60352;SDS011;46196;52.970;6.954;2022-09-01T12:15:41;3.28;;;1.27;;
60352;SDS011;46196;52.970;6.954;2022-09-01T12:18:11;2.90;;;1.45;;
60352;SDS011;46196;52.970;6.954;2022-09-01T12:20:43;3.05;;;1.30;;
60352;SDS011;46196;52.970;6.954;2022-09-01T12:25:56;3.53;;;1.40;;
60352;SDS011;46196;52.970;6.954;2022-09-01T12:28:33;1.80;;;1.23;;
60352;SDS011;46196;52.970;6.954;2022-09-01T12:31:01;2.08;;;1.30;;
60352;SDS011;46196;52.970;6.954;2022-09-01T12:33:29;1.73;;;1.17;;
60352;SDS011;46196;52.970;6.954;2022-09-01T12:38:45;3.38;;;1.20;;
60352;SDS011;46196;52.970;6.954;2022-09-01T12:46:51;3.95;;;1.17;;
60352;SDS011;46196;52.970;6.954;2022-09-01T12:49:39;1.58;;;1.15;;
60352;SDS011;46196;52.970;6.954;2022-09-01T12:54:50;1.33;;;0.98;;
60352;SDS011;46196;52.970;6.954;2022-09-01T12:57:23;3.28;;;1.10;;
60352;SDS011;46196;52.970;6.954;2022-09-01T13:00:52;1.40;;;1.10;;
60352;SDS011;46196;52.970;6.954;2022-09-01T13:07:56;4.47;;;1.10;;
60352;SDS011;46196;52.970;6.954;2022-09-01T13:10:25;0.75;;;0.73;;
60352;SDS011;46196;52.970;6.954;2022-09-01T13:12:54;2.72;;;1.20;;
60352;SDS011;46196;52.970;6.954;2022-09-01T13:15:22;3.95;;;1.27;;
60352;SDS011;46196;52.970;6.954;2022-09-01T13:17:49;2.72;;;1.42;;
60352;SDS011;46196;52.970;6.954;2022-09-01T13:20:16;5.43;;;1.30;;
60352;SDS011;46196;52.970;6.954;2022-09-01T13:22:42;1.83;;;0.93;;
60352;SDS011;46196;52.970;6.954;2022-09-01T13:25:12;1.95;;;1.33;;
60352;SDS011;46196;52.970;6.954;2022-09-01T13:27:40;3.38;;;1.27;;
60352;SDS011;46196;52.970;6.954;2022-09-01T13:30:19;1.33;;;1.15;;
60352;SDS011;46196;52.970;6.954;2022-09-01T13:32:52;4.05;;;1.60;;
60352;SDS011;46196;52.970;6.954;2022-09-01T13:35:20;1.40;;;0.90;;
60352;SDS011;46196;52.970;6.954;2022-09-01T13:37:46;0.88;;;0.82;;
60352;SDS011;46196;52.970;6.954;2022-09-01T13:40:13;3.28;;;1.17;;
60352;SDS011;46196;52.970;6.954;2022-09-01T13:42:44;2.20;;;1.30;;
60352;SDS011;46196;52.970;6.954;2022-09-01T13:45:13;2.13;;;1.25;;
60352;SDS011;46196;52.970;6.954;2022-09-01T13:47:42;2.55;;;1.30;;
60352;SDS011;46196;52.970;6.954;2022-09-01T13:50:13;1.65;;;1.02;;
60352;SDS011;46196;52.970;6.954;2022-09-01T13:52:43;1.85;;;1.33;;
60352;SDS011;46196;52.970;6.954;2022-09-01T13:55:11;1.73;;;1.15;;
60352;SDS011;46196;52.970;6.954;2022-09-01T13:57:39;4.35;;;1.50;;
60352;SDS011;46196;52.970;6.954;2022-09-01T14:00:07;1.48;;;1.10;;
60352;SDS011;46196;52.970;6.954;2022-09-01T14:02:35;1.85;;;1.15;;
60352;SDS011;46196;52.970;6.954;2022-09-01T14:05:05;1.60;;;1.20;;
60352;SDS011;46196;52.970;6.954;2022-09-01T14:07:31;2.65;;;1.17;;
60352;SDS011;46196;52.970;6.954;2022-09-01T14:09:57;2.33;;;1.30;;
60352;SDS011;46196;52.970;6.954;2022-09-01T14:12:24;2.28;;;0.98;;
60352;SDS011;46196;52.970;6.954;2022-09-01T14:14:50;2.33;;;0.88;;
60352;SDS011;46196;52.970;6.954;2022-09-01T14:17:16;2.42;;;1.52;;
60352;SDS011;46196;52.970;6.954;2022-09-01T14:19:42;2.78;;;1.15;;
60352;SDS011;46196;52.970;6.954;2022-09-01T14:22:10;3.22;;;1.60;;
60352;SDS011;46196;52.970;6.954;2022-09-01T14:24:36;2.70;;;1.15;;
60352;SDS011;46196;52.970;6.954;2022-09-01T14:27:02;2.20;;;1.38;;
60352;SDS011;46196;52.970;6.954;2022-09-01T14:29:28;2.75;;;1.10;;
60352;SDS011;46196;52.970;6.954;2022-09-01T14:31:54;2.53;;;1.02;;
60352;SDS011;46196;52.970;6.954;2022-09-01T14:34:22;2.15;;;0.98;;
60352;SDS011;46196;52.970;6.954;2022-09-01T14:36:49;1.95;;;1.17;;
60352;SDS011;46196;52.970;6.954;2022-09-01T14:41:42;3.40;;;1.10;;
60352;SDS011;46196;52.970;6.954;2022-09-01T14:44:09;2.72;;;1.38;;
60352;SDS011;46196;52.970;6.954;2022-09-01T14:46:34;1.85;;;1.35;;
60352;SDS011;46196;52.970;6.954;2022-09-01T14:49:01;1.27;;;1.00;;
60352;SDS011;46196;52.970;6.954;2022-09-01T14:51:29;1.27;;;1.02;;
60352;SDS011;46196;52.970;6.954;2022-09-01T14:53:55;2.40;;;1.00;;
60352;SDS011;46196;52.970;6.954;2022-09-01T14:56:22;1.85;;;1.10;;
60352;SDS011;46196;52.970;6.954;2022-09-01T14:58:49;2.92;;;1.20;;
60352;SDS011;46196;52.970;6.954;2022-09-01T15:01:16;1.63;;;1.20;;
60352;SDS011;46196;52.970;6.954;2022-09-01T15:03:45;1.98;;;1.30;;
60352;SDS011;46196;52.970;6.954;2022-09-01T15:06:12;2.17;;;1.13;;
60352;SDS011;46196;52.970;6.954;2022-09-01T15:08:40;1.60;;;1.17;;
60352;SDS011;46196;52.970;6.954;2022-09-01T15:11:08;2.38;;;1.17;;
60352;SDS011;46196;52.970;6.954;2022-09-01T15:13:35;3.53;;;1.10;;
60352;SDS011;46196;52.970;6.954;2022-09-01T15:16:02;2.45;;;1.33;;
60352;SDS011;46196;52.970;6.954;2022-09-01T15:18:29;4.15;;;1.50;;
60352;SDS011;46196;52.970;6.954;2022-09-01T15:20:55;1.27;;;1.10;;
60352;SDS011;46196;52.970;6.954;2022-09-01T15:23:21;1.95;;;1.20;;
60352;SDS011;46196;52.970;6.954;2022-09-01T15:25:53;4.63;;;0.88;;
60352;SDS011;46196;52.970;6.954;2022-09-01T15:28:19;2.72;;;1.80;;
60352;SDS011;46196;52.970;6.954;2022-09-01T15:30:46;2.30;;;1.27;;
60352;SDS011;46196;52.970;6.954;2022-09-01T15:33:13;2.10;;;1.50;;
60352;SDS011;46196;52.970;6.954;2022-09-01T15:35:39;2.03;;;0.95;;
60352;SDS011;46196;52.970;6.954;2022-09-01T15:38:05;3.80;;;1.33;;
60352;SDS011;46196;52.970;6.954;2022-09-01T15:40:37;2.50;;;1.27;;
60352;SDS011;46196;52.970;6.954;2022-09-01T15:43:05;2.30;;;1.27;;
60352;SDS011;46196;52.970;6.954;2022-09-01T15:45:30;2.50;;;1.10;;
60352;SDS011;46196;52.970;6.954;2022-09-01T15:47:56;1.88;;;1.10;;
60352;SDS011;46196;52.970;6.954;2022-09-01T15:50:23;1.98;;;1.23;;
60352;SDS011;46196;52.970;6.954;2022-09-01T15:52:51;2.72;;;1.30;;
60352;SDS011;46196;52.970;6.954;2022-09-01T15:57:46;2.17;;;0.95;;
60352;SDS011;46196;52.970;6.954;2022-09-01T16:00:12;2.28;;;1.17;;
60352;SDS011;46196;52.970;6.954;2022-09-01T16:02:39;1.23;;;1.00;;
60352;SDS011;46196;52.970;6.954;2022-09-01T16:05:05;2.13;;;1.33;;
60352;SDS011;46196;52.970;6.954;2022-09-01T16:07:31;5.55;;;1.17;;
60352;SDS011;46196;52.970;6.954;2022-09-01T16:09:57;1.30;;;1.10;;
60352;SDS011;46196;52.970;6.954;2022-09-01T16:12:23;1.48;;;1.13;;
60352;SDS011;46196;52.970;6.954;2022-09-01T16:14:50;2.00;;;1.30;;
60352;SDS011;46196;52.970;6.954;2022-09-01T16:20:01;2.35;;;1.20;;
60352;SDS011;46196;52.970;6.954;2022-09-01T16:22:35;1.67;;;0.70;;
60352;SDS011;46196;52.970;6.954;2022-09-01T16:25:10;5.18;;;1.60;;
60352;SDS011;46196;52.970;6.954;2022-09-01T16:27:43;2.33;;;1.45;;
60352;SDS011;46196;52.970;6.954;2022-09-01T16:30:13;1.52;;;1.10;;
60352;SDS011;46196;52.970;6.954;2022-09-01T16:32:44;0.77;;;0.70;;
60352;SDS011;46196;52.970;6.954;2022-09-01T16:35:12;3.78;;;1.38;;
60352;SDS011;46196;52.970;6.954;2022-09-01T16:37:44;3.10;;;1.20;;
60352;SDS011;46196;52.970;6.954;2022-09-01T16:40:50;3.20;;;1.30;;
60352;SDS011;46196;52.970;6.954;2022-09-01T16:43:32;2.28;;;1.70;;